createdAt,value
2023-03-23T15:58:27.398Z,50.34
2023-03-23T16:03:35.964Z,50.16
2023-03-23T16:08:40.977Z,50.51
2023-03-23T16:13:42.198Z,50.87
2023-03-23T16:18:43.006Z,50.89
2023-03-23T16:23:46.422Z,50.36
2023-03-23T16:28:47.264Z,51.25
2023-03-23T16:33:47.909Z,51.16
2023-03-23T16:38:52.469Z,51.18
2023-03-23T16:43:54.240Z,50.60
2023-03-23T16:48:54.850Z,51.60
2023-03-23T16:53:56.877Z,52.58
2023-03-23T16:58:57.580Z,53.87
2023-03-23T17:04:00.423Z,54.90
2023-03-23T17:09:02.538Z,55.85
2023-03-23T17:14:03.251Z,56.29
2023-03-23T17:19:04.079Z,56.36
2023-03-23T17:24:06.576Z,56.17
2023-03-23T17:29:07.302Z,56.58
2023-03-23T17:34:08.492Z,56.14
2023-03-23T17:39:10.682Z,57.24
2023-03-23T17:44:11.295Z,57.93
2023-03-23T17:49:12.065Z,58.08
2023-03-23T17:54:14.008Z,58.49
2023-03-23T17:59:14.625Z,59.58
2023-03-23T18:04:15.266Z,60.28
2023-03-23T18:09:17.291Z,61.22
2023-03-23T18:14:18.157Z,60.98
2023-03-23T18:19:18.787Z,61.83
2023-03-23T18:24:20.798Z,63.02
2023-03-23T18:29:21.395Z,64.02
2023-03-23T18:34:22.051Z,64.46
2023-03-23T18:39:24.044Z,65.06
2023-03-23T18:44:24.680Z,65.58
2023-03-23T18:49:25.485Z,66.76
2023-03-23T18:54:28.285Z,66.78
2023-03-23T18:59:30.458Z,66.40
2023-03-23T19:04:33.146Z,67.23
2023-03-23T19:09:35.788Z,67.49
2023-03-23T19:14:37.014Z,67.55
2023-03-23T19:19:38.542Z,68.06
2023-03-23T19:24:40.703Z,68.40
2023-03-23T19:29:41.680Z,69.09
2023-03-23T19:34:42.426Z,68.38
2023-03-23T19:39:44.507Z,68.51
2023-03-23T19:44:45.634Z,70.20
2023-03-23T19:49:46.587Z,69.49
2023-03-23T19:54:48.612Z,70.80
2023-03-23T19:59:49.250Z,69.94
2023-03-23T20:04:50.085Z,70.36
2023-03-23T20:09:52.122Z,71.29
2023-03-23T20:14:52.808Z,70.42
2023-03-23T20:19:53.432Z,69.68
2023-03-23T20:24:55.620Z,70.08
2023-03-23T20:29:56.992Z,69.63
2023-03-23T20:34:57.699Z,69.21
2023-03-23T20:40:01.333Z,69.40
2023-03-23T20:45:02.073Z,69.17
2023-03-23T20:50:03.496Z,68.55
2023-03-23T20:55:07.594Z,69.19
2023-03-23T21:00:10.052Z,68.44
2023-03-23T21:05:11.052Z,69.66
2023-03-23T21:10:13.258Z,68.72
2023-03-23T21:15:14.049Z,68.78
2023-03-23T21:20:14.945Z,68.43
2023-03-23T21:25:17.115Z,67.23
2023-03-23T21:30:18.030Z,66.00
2023-03-23T21:35:18.908Z,65.71
2023-03-23T21:40:22.001Z,65.87
2023-03-23T21:45:22.741Z,64.76
2023-03-23T21:50:24.263Z,65.00
2023-03-23T21:55:29.562Z,64.12
2023-03-23T22:00:30.298Z,64.17
2023-03-23T22:05:32.064Z,64.32
2023-03-23T22:10:34.112Z,64.05
2023-03-23T22:15:35.389Z,64.17
2023-03-23T22:20:36.022Z,64.38
2023-03-23T22:25:38.449Z,64.65
2023-03-23T22:30:39.153Z,65.72
2023-03-23T22:35:39.848Z,65.51
2023-03-23T22:40:42.560Z,65.44
2023-03-23T22:45:43.295Z,66.14
2023-03-23T22:50:44.279Z,66.36
2023-03-23T22:55:48.135Z,65.86
2023-03-23T23:00:50.968Z,66.31
2023-03-23T23:05:53.188Z,65.32
2023-03-23T23:10:57.638Z,65.16
2023-03-23T23:16:00.510Z,66.22
2023-03-23T23:21:05.076Z,66.09
2023-03-23T23:26:08.034Z,65.45
2023-03-23T23:31:22.474Z,66.19
2023-03-23T23:36:23.724Z,65.92
2023-03-23T23:41:26.424Z,65.62
2023-03-23T23:46:27.263Z,65.59
2023-03-23T23:51:28.734Z,65.26
2023-03-23T23:56:31.134Z,65.52
